createdAt,value
2018-03-09T00:00:04.681Z,5.37
2018-03-09T00:02:32.136Z,2.58
2018-03-09T00:04:59.593Z,3.05
2018-03-09T00:07:27.137Z,3.85
2018-03-09T00:09:54.544Z,2.50
2018-03-09T00:12:22.015Z,2.87
2018-03-09T00:14:49.488Z,2.65
2018-03-09T00:17:17.089Z,4.20
2018-03-09T00:19:44.551Z,3.00
2018-03-09T00:22:12.804Z,2.37
2018-03-09T00:24:40.294Z,1.90
2018-03-09T00:27:08.516Z,2.75
2018-03-09T00:29:35.968Z,2.45
2018-03-09T00:32:03.436Z,6.28
2018-03-09T00:34:30.969Z,5.78
2018-03-09T00:36:58.495Z,4.43
2018-03-09T00:39:26.740Z,4.45
2018-03-09T00:41:54.198Z,4.18
2018-03-09T00:44:21.655Z,3.03
2018-03-09T00:46:49.209Z,3.28
2018-03-09T00:49:17.436Z,5.72
2018-03-09T00:51:44.891Z,3.12
2018-03-09T00:54:12.414Z,4.50
2018-03-09T00:56:39.877Z,4.35
2018-03-09T00:59:07.428Z,6.53
2018-03-09T01:01:34.904Z,4.78
2018-03-09T01:04:03.137Z,6.10
2018-03-09T01:06:30.608Z,7.20
2018-03-09T01:08:58.068Z,6.68
2018-03-09T01:11:25.557Z,9.52
2018-03-09T01:13:53.757Z,7.85
2018-03-09T01:16:21.212Z,7.85
2018-03-09T01:18:48.767Z,8.10
2018-03-09T01:21:16.242Z,8.15
2018-03-09T01:23:43.712Z,9.82
2018-03-09T01:26:11.189Z,7.07
2018-03-09T01:28:38.665Z,10.40
2018-03-09T01:31:06.923Z,9.85
2018-03-09T01:33:34.407Z,7.82
2018-03-09T01:36:01.920Z,6.37
2018-03-09T01:38:29.403Z,9.52
2018-03-09T01:40:56.874Z,9.23
2018-03-09T01:43:24.345Z,9.80
2018-03-09T01:45:51.823Z,10.25
2018-03-09T01:48:19.290Z,7.62
2018-03-09T01:50:46.771Z,10.05
2018-03-09T01:53:14.327Z,11.50
2018-03-09T01:55:41.784Z,10.68
2018-03-09T01:58:10.026Z,9.18
2018-03-09T02:00:37.505Z,12.05
2018-03-09T02:03:04.970Z,9.60
2018-03-09T02:05:32.532Z,10.68
2018-03-09T02:07:59.993Z,11.43
2018-03-09T02:10:27.540Z,12.75
2018-03-09T02:12:55.001Z,9.55
2018-03-09T02:15:22.516Z,9.40
2018-03-09T02:17:49.984Z,11.85
2018-03-09T02:20:17.582Z,11.20
2018-03-09T02:22:45.811Z,12.30
2018-03-09T02:25:13.270Z,10.70
2018-03-09T02:27:40.777Z,9.10
2018-03-09T02:30:08.334Z,11.80
2018-03-09T02:32:35.796Z,9.50
2018-03-09T02:35:04.045Z,15.70
2018-03-09T02:37:31.542Z,10.30
2018-03-09T02:39:59.778Z,12.02
2018-03-09T02:42:27.340Z,16.92
2018-03-09T02:44:54.909Z,12.13
2018-03-09T02:47:22.371Z,9.60
2018-03-09T02:49:50.606Z,11.63
2018-03-09T02:52:18.096Z,9.95
2018-03-09T02:54:45.575Z,11.25
2018-03-09T02:57:13.796Z,11.68
2018-03-09T02:59:41.266Z,12.55
2018-03-09T03:02:08.741Z,12.25
2018-03-09T03:04:36.321Z,10.77
2018-03-09T03:07:04.554Z,11.20
2018-03-09T03:09:32.035Z,11.57
2018-03-09T03:11:59.593Z,7.97
2018-03-09T03:14:27.062Z,13.73
2018-03-09T03:16:54.530Z,9.80
2018-03-09T03:19:22.759Z,10.23
2018-03-09T03:21:50.228Z,9.50
2018-03-09T03:24:17.690Z,11.27
2018-03-09T03:26:45.154Z,12.05
2018-03-09T03:29:12.718Z,9.95
2018-03-09T03:31:40.989Z,10.57
2018-03-09T03:34:08.554Z,13.88
2018-03-09T03:36:36.022Z,7.95
2018-03-09T03:39:04.256Z,12.20
2018-03-09T03:41:31.716Z,11.68
2018-03-09T03:43:59.180Z,10.13
2018-03-09T03:46:26.646Z,11.75
2018-03-09T03:48:54.206Z,17.73
2018-03-09T03:51:21.760Z,8.82
2018-03-09T03:53:49.226Z,17.70
2018-03-09T03:56:16.700Z,11.75
2018-03-09T03:58:44.930Z,11.65
2018-03-09T04:01:12.402Z,12.32
2018-03-09T04:03:39.977Z,8.30
2018-03-09T04:06:07.445Z,11.05
2018-03-09T04:08:35.715Z,13.57
2018-03-09T04:11:03.949Z,11.57
2018-03-09T04:13:31.408Z,9.88
2018-03-09T04:15:58.865Z,13.25
2018-03-09T04:18:26.355Z,11.23
2018-03-09T04:20:53.913Z,11.10
2018-03-09T04:23:21.371Z,14.30
2018-03-09T04:25:49.611Z,10.20
2018-03-09T04:28:17.086Z,10.40
2018-03-09T04:30:44.640Z,10.75
2018-03-09T04:33:12.103Z,23.90
2018-03-09T04:35:39.578Z,11.07
2018-03-09T04:38:07.828Z,8.93
2018-03-09T04:40:35.275Z,11.88
2018-03-09T04:43:02.732Z,9.93
2018-03-09T04:45:30.206Z,10.15
2018-03-09T04:47:57.757Z,12.65
2018-03-09T04:50:25.226Z,12.37
2018-03-09T04:52:52.680Z,12.30
2018-03-09T04:55:20.136Z,9.55
2018-03-09T04:57:47.596Z,12.75
2018-03-09T05:00:15.090Z,18.50
2018-03-09T05:02:42.615Z,9.30
2018-03-09T05:05:10.080Z,12.55
2018-03-09T05:07:37.580Z,11.25
2018-03-09T05:10:05.066Z,9.88
2018-03-09T05:12:32.524Z,11.88
2018-03-09T05:14:59.994Z,9.43
2018-03-09T05:17:27.457Z,11.55
2018-03-09T05:19:54.937Z,12.25
2018-03-09T05:22:23.191Z,10.02
2018-03-09T05:24:50.745Z,16.37
2018-03-09T05:27:18.218Z,10.05
2018-03-09T05:29:46.432Z,9.48
2018-03-09T05:32:13.909Z,11.85
2018-03-09T05:34:41.389Z,11.52
2018-03-09T05:37:08.872Z,9.23
2018-03-09T05:39:37.102Z,10.90
2018-03-09T05:42:04.582Z,9.75
2018-03-09T05:44:32.049Z,12.90
2018-03-09T05:47:00.273Z,10.85
2018-03-09T05:49:27.780Z,16.25
2018-03-09T05:51:56.042Z,12.95
2018-03-09T05:54:23.601Z,14.48
2018-03-09T05:56:51.061Z,14.50
2018-03-09T05:59:18.527Z,13.10
2018-03-09T06:01:45.993Z,14.00
2018-03-09T06:04:14.224Z,11.07
2018-03-09T06:06:41.702Z,15.95
2018-03-09T06:09:09.291Z,11.63
2018-03-09T06:11:37.517Z,12.77
2018-03-09T06:14:05.002Z,12.30
2018-03-09T06:16:32.590Z,14.73
2018-03-09T06:19:00.067Z,9.73
2018-03-09T06:21:27.554Z,14.77
2018-03-09T06:23:55.037Z,19.85
2018-03-09T06:26:23.387Z,11.77
2018-03-09T06:28:50.856Z,14.45
2018-03-09T06:31:18.320Z,12.00
2018-03-09T06:33:46.547Z,15.32
2018-03-09T06:36:14.022Z,17.15
2018-03-09T06:38:41.511Z,13.13
2018-03-09T06:41:08.972Z,15.70
2018-03-09T06:43:36.446Z,13.23
2018-03-09T06:46:04.690Z,17.33
2018-03-09T06:48:32.221Z,15.00
2018-03-09T06:50:59.640Z,12.05
2018-03-09T06:53:27.100Z,18.52
2018-03-09T06:55:54.555Z,13.05
2018-03-09T06:58:22.022Z,25.37
2018-03-09T07:00:49.474Z,15.93
2018-03-09T07:03:16.947Z,16.77
2018-03-09T07:05:44.442Z,15.95
2018-03-09T07:08:11.910Z,17.58
2018-03-09T07:10:39.390Z,14.20
2018-03-09T07:13:06.919Z,19.10
2018-03-09T07:15:34.476Z,15.32
2018-03-09T07:18:01.991Z,12.98
2018-03-09T07:20:29.484Z,17.80
2018-03-09T07:22:56.953Z,10.90
2018-03-09T07:25:24.404Z,14.90
2018-03-09T07:27:51.876Z,15.77
2018-03-09T07:30:20.111Z,13.93
2018-03-09T07:32:47.763Z,21.08
2018-03-09T07:35:15.252Z,15.10
2018-03-09T07:37:42.816Z,12.20
2018-03-09T07:40:10.287Z,13.85
2018-03-09T07:42:38.527Z,13.32
2018-03-09T07:45:06.000Z,17.75
2018-03-09T07:47:33.467Z,18.80
2018-03-09T07:50:01.070Z,14.93
2018-03-09T07:52:28.651Z,15.45
2018-03-09T07:54:56.118Z,23.33
2018-03-09T07:57:23.615Z,17.17
2018-03-09T07:59:51.890Z,15.30
2018-03-09T08:02:20.162Z,13.65
2018-03-09T08:04:48.422Z,16.52
2018-03-09T08:07:15.925Z,14.02
2018-03-09T08:09:43.427Z,16.17
2018-03-09T08:12:10.932Z,15.13
2018-03-09T08:14:38.483Z,17.40
2018-03-09T08:17:05.992Z,11.75
2018-03-09T08:19:33.498Z,13.80
2018-03-09T08:22:01.007Z,14.57
2018-03-09T08:24:28.517Z,23.50
2018-03-09T08:26:56.060Z,16.92
2018-03-09T08:29:23.634Z,15.52
2018-03-09T08:31:51.193Z,20.27
2018-03-09T08:34:18.698Z,16.33
2018-03-09T08:36:46.307Z,17.25
2018-03-09T08:39:13.807Z,18.42
2018-03-09T08:41:41.425Z,9.95
2018-03-09T08:44:08.938Z,11.00
2018-03-09T08:46:36.470Z,15.25
2018-03-09T08:49:03.995Z,17.25
2018-03-09T08:51:31.569Z,11.50
2018-03-09T08:53:59.082Z,13.35
2018-03-09T08:56:26.591Z,16.10
2018-03-09T08:58:54.104Z,12.82
2018-03-09T09:01:21.695Z,19.83
2018-03-09T09:03:49.226Z,13.98
2018-03-09T09:06:17.501Z,14.15
2018-03-09T09:08:45.803Z,13.93
2018-03-09T09:11:13.303Z,19.27
2018-03-09T09:13:40.840Z,18.98
2018-03-09T09:16:08.339Z,26.33
2018-03-09T09:18:35.953Z,23.48
2018-03-09T09:21:03.619Z,18.52
2018-03-09T09:23:31.219Z,17.70
2018-03-09T09:25:58.811Z,12.18
2018-03-09T09:28:26.452Z,15.10
2018-03-09T09:30:54.066Z,15.30
2018-03-09T09:33:21.660Z,15.30
2018-03-09T09:35:49.490Z,17.67
2018-03-09T09:38:17.058Z,18.52
2018-03-09T09:40:44.908Z,15.85
2018-03-09T09:43:12.464Z,14.60
2018-03-09T09:45:40.001Z,12.73
2018-03-09T09:48:07.567Z,12.63
2018-03-09T09:50:35.091Z,14.95
2018-03-09T09:53:02.588Z,23.33
2018-03-09T09:55:30.084Z,9.50
2018-03-09T09:57:57.584Z,22.17
2018-03-09T10:00:25.866Z,18.67
2018-03-09T10:02:53.657Z,16.85
2018-03-09T10:05:21.273Z,18.58
2018-03-09T10:07:50.216Z,17.30
2018-03-09T10:10:17.760Z,24.60
2018-03-09T10:12:45.327Z,14.80
2018-03-09T10:15:12.837Z,19.62
2018-03-09T10:17:41.103Z,22.35
2018-03-09T10:20:08.607Z,15.65
2018-03-09T10:22:36.123Z,18.75
2018-03-09T10:25:03.631Z,16.83
2018-03-09T10:27:31.163Z,21.15
2018-03-09T10:29:59.435Z,17.95
2018-03-09T10:32:27.726Z,16.58
2018-03-09T10:34:55.234Z,16.67
2018-03-09T10:37:22.719Z,20.90
2018-03-09T10:39:50.982Z,20.12
2018-03-09T10:42:19.386Z,19.35
2018-03-09T10:44:46.947Z,22.15
2018-03-09T10:47:14.437Z,21.00
2018-03-09T10:49:41.935Z,18.25
2018-03-09T10:52:10.238Z,18.30
2018-03-09T10:54:37.750Z,16.70
2018-03-09T10:57:05.263Z,20.23
2018-03-09T10:59:32.765Z,17.20
2018-03-09T11:02:00.270Z,20.02
2018-03-09T11:04:27.780Z,10.55
2018-03-09T11:06:56.366Z,14.93
2018-03-09T11:09:23.862Z,15.13
2018-03-09T11:11:51.422Z,19.33
2018-03-09T11:14:18.983Z,19.52
2018-03-09T11:16:46.498Z,19.08
2018-03-09T11:19:14.003Z,14.60
2018-03-09T11:21:41.566Z,12.37
2018-03-09T11:24:09.075Z,16.87
2018-03-09T11:26:37.355Z,14.70
2018-03-09T11:29:04.851Z,13.20
2018-03-09T11:31:32.348Z,18.25
2018-03-09T11:33:59.975Z,12.43
2018-03-09T11:36:27.523Z,17.65
2018-03-09T11:38:55.024Z,21.85
2018-03-09T11:41:22.550Z,15.95
2018-03-09T11:43:50.211Z,16.30
2018-03-09T11:46:17.769Z,12.70
2018-03-09T11:48:45.325Z,17.30
2018-03-09T11:51:13.024Z,14.32
2018-03-09T11:53:40.539Z,14.20
2018-03-09T11:56:08.047Z,14.55
2018-03-09T11:58:35.542Z,14.30
2018-03-09T12:01:03.814Z,12.82
2018-03-09T12:03:32.120Z,16.00
2018-03-09T12:05:59.634Z,15.30
2018-03-09T12:08:27.139Z,13.70
2018-03-09T12:10:54.656Z,17.55
2018-03-09T12:13:22.158Z,14.93
2018-03-09T12:15:49.685Z,12.05
2018-03-09T12:18:17.952Z,14.07
2018-03-09T12:20:46.238Z,17.70
2018-03-09T12:23:14.527Z,22.80
2018-03-09T12:25:42.087Z,15.57
2018-03-09T12:28:10.426Z,13.50
2018-03-09T12:30:38.019Z,13.48
2018-03-09T12:33:05.596Z,13.77
2018-03-09T12:35:33.146Z,20.00
2018-03-09T12:38:00.702Z,18.33
2018-03-09T12:40:28.222Z,13.73
2018-03-09T12:42:56.051Z,19.15
2018-03-09T12:45:23.563Z,14.68
2018-03-09T12:47:51.835Z,18.65
2018-03-09T12:50:20.108Z,15.43
2018-03-09T12:52:48.387Z,19.50
2018-03-09T12:55:16.742Z,16.08
2018-03-09T12:57:44.346Z,20.50
2018-03-09T13:00:12.229Z,16.33
2018-03-09T13:02:39.770Z,13.18
2018-03-09T13:05:07.302Z,18.30
2018-03-09T13:07:35.607Z,14.75
2018-03-09T13:10:03.112Z,14.52
2018-03-09T13:12:30.607Z,14.90
2018-03-09T13:15:03.934Z,12.45
2018-03-09T13:17:36.369Z,12.27
2018-03-09T13:20:04.635Z,13.75
2018-03-09T13:22:32.187Z,16.95
2018-03-09T13:24:59.648Z,18.62
2018-03-09T13:27:27.918Z,12.27
2018-03-09T13:29:55.406Z,13.90
2018-03-09T13:32:22.924Z,16.05
2018-03-09T13:34:50.418Z,20.88
2018-03-09T13:37:17.881Z,17.67
2018-03-09T13:39:45.411Z,17.77
2018-03-09T13:42:12.948Z,14.38
2018-03-09T13:44:40.417Z,13.27
2018-03-09T13:47:07.876Z,16.42
2018-03-09T13:49:35.424Z,12.15
2018-03-09T13:52:02.995Z,14.27
2018-03-09T13:54:30.456Z,11.65
2018-03-09T13:56:57.926Z,11.75
2018-03-09T13:59:26.185Z,11.23
2018-03-09T14:01:53.739Z,14.18
2018-03-09T14:04:21.195Z,13.25
2018-03-09T14:06:50.180Z,9.43
2018-03-09T14:09:17.700Z,8.73
2018-03-09T14:11:45.206Z,12.50
2018-03-09T14:14:12.685Z,12.55
2018-03-09T14:16:40.929Z,11.65
2018-03-09T14:19:08.490Z,11.15
2018-03-09T14:21:36.003Z,9.80
2018-03-09T14:24:03.499Z,9.52
2018-03-09T14:26:31.061Z,9.60
2018-03-09T14:28:58.520Z,10.52
2018-03-09T14:31:26.129Z,11.38
2018-03-09T14:33:53.696Z,11.77
2018-03-09T14:36:21.152Z,15.93
2018-03-09T14:38:48.622Z,32.83
2018-03-09T14:41:16.095Z,9.95
2018-03-09T14:43:47.076Z,14.55
2018-03-09T14:46:15.332Z,13.90
2018-03-09T14:48:42.797Z,17.12
2018-03-09T14:51:11.021Z,9.68
2018-03-09T14:53:38.514Z,14.23
2018-03-09T14:56:06.082Z,17.90
2018-03-09T14:58:33.641Z,12.35
2018-03-09T15:01:01.097Z,12.48
2018-03-09T15:03:28.569Z,11.10
2018-03-09T15:05:56.810Z,16.58
2018-03-09T15:08:24.264Z,17.42
2018-03-09T15:10:51.731Z,10.38
2018-03-09T15:13:19.195Z,9.77
2018-03-09T15:15:48.177Z,13.65
2018-03-09T15:18:15.644Z,13.90
2018-03-09T15:20:43.113Z,13.10
2018-03-09T15:23:11.349Z,11.00
2018-03-09T15:25:38.836Z,10.40
2018-03-09T15:28:06.288Z,12.63
2018-03-09T15:30:33.756Z,16.23
2018-03-09T15:33:07.745Z,16.73
2018-03-09T15:35:35.208Z,12.23
2018-03-09T15:38:09.291Z,13.68
2018-03-09T15:40:36.781Z,14.57
2018-03-09T15:43:04.252Z,13.32
2018-03-09T15:45:32.479Z,14.15
2018-03-09T15:47:59.986Z,10.75
2018-03-09T15:50:28.226Z,10.60
2018-03-09T15:52:55.693Z,15.35
2018-03-09T15:55:23.193Z,13.98
2018-03-09T15:57:50.704Z,10.43
2018-03-09T16:00:18.277Z,21.02
2018-03-09T16:02:45.736Z,18.15
2018-03-09T16:05:13.205Z,15.35
2018-03-09T16:07:41.465Z,11.00
2018-03-09T16:10:10.521Z,11.30
2018-03-09T16:12:38.112Z,14.68
2018-03-09T16:15:05.573Z,14.02
2018-03-09T16:17:33.041Z,16.20
2018-03-09T16:20:01.258Z,8.98
2018-03-09T16:22:28.724Z,14.82
2018-03-09T16:24:56.202Z,9.00
2018-03-09T16:27:23.661Z,10.95
2018-03-09T16:29:51.121Z,8.32
2018-03-09T16:32:18.685Z,13.82
2018-03-09T16:34:46.254Z,12.68
2018-03-09T16:37:13.796Z,12.88
2018-03-09T16:39:41.257Z,13.23
2018-03-09T16:42:08.712Z,15.95
2018-03-09T16:44:36.181Z,15.48
2018-03-09T16:47:03.741Z,14.45
2018-03-09T16:49:31.295Z,15.38
2018-03-09T16:51:58.953Z,20.55
2018-03-09T16:54:26.422Z,14.52
2018-03-09T16:56:54.654Z,15.45
2018-03-09T16:59:22.112Z,13.62
2018-03-09T17:01:49.578Z,18.10
2018-03-09T17:04:17.060Z,13.25
2018-03-09T17:06:44.510Z,13.85
2018-03-09T17:09:11.977Z,15.07
2018-03-09T17:11:39.527Z,17.80
2018-03-09T17:14:07.045Z,17.08
2018-03-09T17:16:34.500Z,13.52
2018-03-09T17:19:01.981Z,12.85
2018-03-09T17:21:29.562Z,15.60
2018-03-09T17:23:57.022Z,15.15
2018-03-09T17:26:24.524Z,17.80
2018-03-09T17:28:52.026Z,16.87
2018-03-09T17:31:19.480Z,16.05
2018-03-09T17:33:47.856Z,20.95
2018-03-09T17:36:15.322Z,13.88
2018-03-09T17:38:42.885Z,15.75
2018-03-09T17:41:10.354Z,21.55
2018-03-09T17:43:38.608Z,18.52
2018-03-09T17:46:06.170Z,17.00
2018-03-09T17:48:33.632Z,18.12
2018-03-09T17:51:01.902Z,17.10
2018-03-09T17:53:29.361Z,17.85
2018-03-09T17:55:57.601Z,17.58
2018-03-09T17:58:25.091Z,16.83
2018-03-09T18:00:52.657Z,14.65
2018-03-09T18:03:20.138Z,17.33
2018-03-09T18:05:48.368Z,25.52
2018-03-09T18:08:17.336Z,19.98
2018-03-09T18:10:44.825Z,20.65
2018-03-09T18:13:12.354Z,19.35
2018-03-09T18:15:39.821Z,17.95
2018-03-09T18:18:07.283Z,17.92
2018-03-09T18:20:34.764Z,17.17
2018-03-09T18:23:02.225Z,17.00
2018-03-09T18:25:30.477Z,22.45
2018-03-09T18:27:57.935Z,17.08
2018-03-09T18:30:25.418Z,19.20
2018-03-09T18:32:53.681Z,19.15
2018-03-09T18:35:22.676Z,21.65
2018-03-09T18:37:51.657Z,17.15
2018-03-09T18:40:19.241Z,22.80
2018-03-09T18:42:47.496Z,18.20
2018-03-09T18:45:14.948Z,20.33
2018-03-09T18:47:42.514Z,21.30
2018-03-09T18:50:10.126Z,17.27
2018-03-09T18:52:37.593Z,25.60
2018-03-09T18:55:05.057Z,17.77
2018-03-09T18:57:32.520Z,19.42
2018-03-09T18:59:59.982Z,19.23
2018-03-09T19:02:27.466Z,20.85
2018-03-09T19:04:54.929Z,19.92
2018-03-09T19:07:23.162Z,20.10
2018-03-09T19:09:50.654Z,27.85
2018-03-09T19:12:18.162Z,22.62
2018-03-09T19:14:45.621Z,22.95
2018-03-09T19:17:13.109Z,19.55
2018-03-09T19:19:40.647Z,18.20
2018-03-09T19:22:08.141Z,23.40
2018-03-09T19:24:35.614Z,21.27
2018-03-09T19:27:03.865Z,22.62
2018-03-09T19:29:32.103Z,27.60
2018-03-09T19:31:59.561Z,27.67
2018-03-09T19:34:27.034Z,28.70
2018-03-09T19:36:54.505Z,21.20
2018-03-09T19:39:22.002Z,22.02
2018-03-09T19:41:49.533Z,25.62
2018-03-09T19:44:17.454Z,25.50
2018-03-09T19:46:45.048Z,24.42
2018-03-09T19:49:12.626Z,21.50
2018-03-09T19:51:40.082Z,28.83
2018-03-09T19:54:07.574Z,24.10
2018-03-09T19:56:35.090Z,22.73
2018-03-09T19:59:02.561Z,32.78
2018-03-09T20:01:31.144Z,24.85
2018-03-09T20:06:33.464Z,23.58
2018-03-09T20:09:00.981Z,25.85
2018-03-09T20:11:29.346Z,25.23
2018-03-09T20:13:56.817Z,21.75
2018-03-09T20:16:25.049Z,26.10
2018-03-09T20:18:52.513Z,33.58
2018-03-09T20:21:19.983Z,26.37
2018-03-09T20:23:47.474Z,27.30
2018-03-09T20:26:15.738Z,35.20
2018-03-09T20:28:44.095Z,26.45
2018-03-09T20:31:12.233Z,27.67
2018-03-09T20:33:39.783Z,26.27
2018-03-09T20:36:07.367Z,27.33
2018-03-09T20:38:34.982Z,34.30
2018-03-09T20:41:03.438Z,30.27
2018-03-09T20:43:30.954Z,27.17
2018-03-09T20:45:58.432Z,27.20
2018-03-09T20:48:25.901Z,30.37
2018-03-09T20:50:53.470Z,25.55
2018-03-09T20:53:20.939Z,28.77
2018-03-09T20:55:49.169Z,30.42
2018-03-09T20:58:16.627Z,30.30
2018-03-09T21:00:44.123Z,29.30
2018-03-09T21:03:12.340Z,31.85
2018-03-09T21:05:39.844Z,26.27
2018-03-09T21:08:07.401Z,26.15
2018-03-09T21:10:34.961Z,30.70
2018-03-09T21:13:02.394Z,30.02
2018-03-09T21:15:29.868Z,30.98
2018-03-09T21:17:57.348Z,28.27
2018-03-09T21:20:25.587Z,29.98
2018-03-09T21:22:53.068Z,32.03
2018-03-09T21:25:20.533Z,28.85
2018-03-09T21:27:48.784Z,31.10
2018-03-09T21:30:16.406Z,24.50
2018-03-09T21:32:43.909Z,38.63
2018-03-09T21:35:11.527Z,24.67
2018-03-09T21:37:38.995Z,28.30
2018-03-09T21:40:06.491Z,23.90
2018-03-09T21:42:33.984Z,33.58
2018-03-09T21:45:01.486Z,27.35
2018-03-09T21:47:29.284Z,30.88
2018-03-09T21:49:57.838Z,25.70
2018-03-09T21:52:25.675Z,28.30
2018-03-09T21:54:53.396Z,32.17
2018-03-09T21:57:21.729Z,28.40
2018-03-09T21:59:49.214Z,30.40
2018-03-09T22:02:17.474Z,26.62
2018-03-09T22:04:45.340Z,24.50
2018-03-09T22:07:12.798Z,45.53
2018-03-09T22:09:40.915Z,29.90
2018-03-09T22:12:08.833Z,31.80
2018-03-09T22:14:36.982Z,35.42
2018-03-09T22:17:04.579Z,29.20
2018-03-09T22:19:32.816Z,34.13
2018-03-09T22:22:00.299Z,27.83
2018-03-09T22:24:27.775Z,31.30
2018-03-09T22:26:55.248Z,28.98
2018-03-09T22:29:23.484Z,27.42
2018-03-09T22:31:50.949Z,32.80
2018-03-09T22:34:18.413Z,30.23
2018-03-09T22:36:45.919Z,27.73
2018-03-09T22:39:13.435Z,28.33
2018-03-09T22:41:40.986Z,28.42
2018-03-09T22:44:08.538Z,33.78
2018-03-09T22:46:36.000Z,27.67
2018-03-09T22:49:03.457Z,37.15
2018-03-09T22:51:30.921Z,25.52
2018-03-09T22:53:58.385Z,27.70
2018-03-09T22:56:25.857Z,31.98
2018-03-09T22:58:53.325Z,35.10
2018-03-09T23:01:20.857Z,25.45
2018-03-09T23:03:49.097Z,23.40
2018-03-09T23:06:16.670Z,26.33
2018-03-09T23:08:44.138Z,28.48
2018-03-09T23:11:11.619Z,32.38
2018-03-09T23:13:39.201Z,25.70
2018-03-09T23:16:06.656Z,26.73
2018-03-09T23:18:34.158Z,31.60
2018-03-09T23:21:01.626Z,25.80
2018-03-09T23:23:29.231Z,26.65
2018-03-09T23:25:56.680Z,26.95
2018-03-09T23:28:24.161Z,24.40
2018-03-09T23:30:51.806Z,27.40
2018-03-09T23:33:19.305Z,25.50
2018-03-09T23:35:46.869Z,24.05
2018-03-09T23:38:14.368Z,26.15
2018-03-09T23:40:41.838Z,23.58
2018-03-09T23:43:09.305Z,25.02
2018-03-09T23:45:36.768Z,23.12
2018-03-09T23:48:04.258Z,28.08
2018-03-09T23:50:31.728Z,20.67
2018-03-09T23:52:59.967Z,23.50
2018-03-09T23:55:27.432Z,28.50
2018-03-09T23:57:54.888Z,26.48
